createdAt,value
2022-09-25T00:01:10.913Z,15.43
2022-09-25T00:03:38.041Z,15.61
2022-09-25T00:06:07.588Z,15.76
2022-09-25T00:08:35.602Z,15.68
2022-09-25T00:11:07.898Z,15.27
2022-09-25T00:13:35.401Z,15.00
2022-09-25T00:16:04.144Z,15.37
2022-09-25T00:18:49.457Z,14.56
2022-09-25T00:21:17.734Z,14.93
2022-09-25T00:23:45.680Z,15.33
2022-09-25T00:26:14.573Z,15.11
2022-09-25T00:28:43.121Z,15.31
2022-09-25T00:31:11.399Z,15.45
2022-09-25T00:33:38.443Z,15.31
2022-09-25T00:36:08.356Z,15.60
2022-09-25T00:38:36.985Z,15.48
2022-09-25T00:41:07.259Z,15.49
2022-09-25T00:43:44.638Z,15.48
2022-09-25T00:46:19.227Z,15.32
2022-09-25T00:48:54.135Z,15.18
2022-09-25T00:51:28.969Z,15.22
2022-09-25T00:54:01.249Z,15.20
2022-09-25T00:56:39.165Z,14.96
2022-09-25T00:59:11.108Z,14.77
2022-09-25T01:01:38.363Z,14.72
2022-09-25T01:04:05.583Z,14.52
2022-09-25T01:06:32.788Z,14.75
2022-09-25T01:08:59.804Z,14.78
2022-09-25T01:11:26.745Z,14.57
2022-09-25T01:13:57.218Z,14.68
2022-09-25T01:16:46.870Z,14.70
2022-09-25T01:19:34.243Z,14.56
2022-09-25T01:22:26.430Z,14.63
2022-09-25T01:25:17.831Z,14.63
2022-09-25T01:28:06.983Z,14.34
2022-09-25T01:30:40.031Z,14.34
2022-09-25T01:33:24.099Z,14.46
2022-09-25T01:36:20.136Z,14.28
2022-09-25T01:39:06.794Z,14.21
2022-09-25T01:41:45.179Z,14.19
2022-09-25T01:44:28.023Z,14.40
2022-09-25T01:46:59.740Z,14.44
2022-09-25T01:49:49.558Z,14.29
2022-09-25T01:52:26.004Z,14.36
2022-09-25T01:55:08.540Z,14.23
2022-09-25T01:57:44.571Z,14.52
2022-09-25T02:00:21.896Z,14.32
2022-09-25T02:03:06.483Z,14.36
2022-09-25T02:06:05.042Z,14.47
2022-09-25T02:08:39.722Z,14.17
2022-09-25T02:11:08.821Z,14.37
2022-09-25T02:13:53.248Z,14.16
2022-09-25T02:16:26.201Z,14.09
2022-09-25T02:19:12.244Z,13.62
2022-09-25T02:21:44.455Z,13.94
2022-09-25T02:24:49.030Z,13.89
2022-09-25T02:27:18.311Z,13.67
2022-09-25T02:29:44.980Z,13.95
2022-09-25T02:32:19.074Z,13.89
2022-09-25T02:34:46.277Z,13.66
2022-09-25T02:37:15.440Z,13.42
2022-09-25T02:39:47.888Z,13.27
2022-09-25T02:42:18.201Z,13.58
2022-09-25T02:44:50.720Z,13.67
2022-09-25T02:47:52.565Z,13.58
2022-09-25T02:50:46.980Z,13.58
2022-09-25T02:53:43.418Z,13.44
2022-09-25T02:56:32.017Z,13.36
2022-09-25T02:59:08.370Z,13.40
2022-09-25T03:01:39.802Z,13.55
2022-09-25T03:04:07.218Z,13.25
2022-09-25T03:06:34.125Z,13.23
2022-09-25T03:09:02.925Z,13.50
2022-09-25T03:11:29.673Z,13.42
2022-09-25T03:14:01.496Z,13.46
2022-09-25T03:16:40.850Z,13.40
2022-09-25T03:19:08.022Z,13.15
2022-09-25T03:21:34.716Z,13.12
2022-09-25T03:24:01.918Z,13.32
2022-09-25T03:26:29.822Z,13.30
2022-09-25T03:28:57.395Z,13.43
2022-09-25T03:31:24.345Z,13.23
2022-09-25T03:33:51.115Z,13.19
2022-09-25T03:36:23.776Z,13.07
2022-09-25T03:38:57.962Z,13.23
2022-09-25T03:41:28.049Z,13.45
2022-09-25T03:43:56.666Z,13.10
2022-09-25T03:46:29.061Z,13.05
2022-09-25T03:48:57.130Z,13.12
2022-09-25T03:51:25.329Z,13.10
2022-09-25T03:53:52.238Z,13.13
2022-09-25T03:56:22.863Z,13.04
2022-09-25T03:58:51.141Z,13.08
2022-09-25T04:01:21.977Z,12.83
2022-09-25T04:03:50.581Z,12.98
2022-09-25T04:06:20.116Z,13.06
2022-09-25T04:08:48.200Z,13.05
2022-09-25T04:11:16.168Z,12.94
2022-09-25T04:13:44.145Z,12.94
2022-09-25T04:16:12.223Z,12.86
2022-09-25T04:18:41.839Z,12.62
2022-09-25T04:21:10.667Z,12.88
2022-09-25T04:23:38.696Z,13.08
2022-09-25T04:26:05.904Z,12.98
2022-09-25T04:28:33.168Z,12.18
2022-09-25T04:31:00.633Z,12.63
2022-09-25T04:33:45.794Z,12.63
2022-09-25T04:36:12.962Z,12.39
2022-09-25T04:38:39.744Z,12.64
2022-09-25T04:41:08.144Z,12.64
2022-09-25T04:43:35.361Z,12.72
2022-09-25T04:46:03.961Z,12.98
2022-09-25T04:48:31.578Z,12.79
2022-09-25T04:50:58.590Z,12.67
2022-09-25T04:53:27.234Z,12.81
2022-09-25T04:55:55.227Z,12.65
2022-09-25T04:58:22.259Z,12.20
2022-09-25T05:00:49.798Z,12.56
2022-09-25T05:03:16.800Z,12.84
2022-09-25T05:05:44.168Z,12.92
2022-09-25T05:08:11.603Z,12.75
2022-09-25T05:10:39.815Z,13.09
2022-09-25T05:13:09.195Z,13.04
2022-09-25T05:15:36.367Z,13.07
2022-09-25T05:18:04.505Z,13.38
2022-09-25T05:20:31.372Z,13.45
2022-09-25T05:22:58.558Z,13.53
2022-09-25T05:25:26.744Z,13.36
2022-09-25T05:27:55.940Z,13.48
2022-09-25T05:30:23.157Z,13.59
2022-09-25T05:32:51.472Z,13.71
2022-09-25T05:35:22.505Z,13.23
2022-09-25T05:37:51.328Z,13.50
2022-09-25T05:40:21.088Z,13.47
2022-09-25T05:42:49.172Z,13.17
2022-09-25T05:45:17.499Z,13.65
2022-09-25T05:47:44.858Z,13.80
2022-09-25T05:50:14.207Z,13.76
2022-09-25T05:52:41.208Z,14.25
2022-09-25T05:55:09.655Z,14.41
2022-09-25T05:57:37.837Z,13.90
2022-09-25T06:00:09.087Z,13.51
2022-09-25T06:02:41.564Z,13.33
2022-09-25T06:05:09.118Z,13.78
2022-09-25T06:07:36.741Z,14.03
2022-09-25T06:10:03.844Z,13.23
2022-09-25T06:12:31.386Z,12.86
2022-09-25T06:14:58.267Z,12.92
2022-09-25T06:17:25.280Z,13.48
2022-09-25T06:19:52.039Z,14.42
2022-09-25T06:22:18.886Z,14.61
2022-09-25T06:24:45.951Z,14.14
2022-09-25T06:27:12.699Z,14.57
2022-09-25T06:29:39.335Z,14.83
2022-09-25T06:32:06.203Z,14.52
2022-09-25T06:34:32.918Z,14.13
2022-09-25T06:37:03.063Z,14.72
2022-09-25T06:39:33.237Z,15.27
2022-09-25T06:42:00.166Z,14.21
2022-09-25T06:44:28.325Z,14.38
2022-09-25T06:46:55.290Z,14.29
2022-09-25T06:49:23.354Z,14.57
2022-09-25T06:51:51.275Z,15.60
2022-09-25T06:54:18.559Z,14.79
2022-09-25T06:56:49.496Z,15.67
2022-09-25T06:59:17.086Z,15.94
2022-09-25T07:01:44.075Z,15.82
2022-09-25T07:04:10.822Z,15.96
2022-09-25T07:06:37.965Z,16.07
2022-09-25T07:09:04.920Z,15.96
2022-09-25T07:11:33.187Z,16.43
2022-09-25T07:14:00.025Z,16.68
2022-09-25T07:16:29.962Z,15.59
2022-09-25T07:19:00.508Z,16.35
2022-09-25T07:21:30.649Z,16.83
2022-09-25T07:23:59.001Z,16.92
2022-09-25T07:26:33.888Z,17.23
2022-09-25T07:29:04.320Z,17.06
2022-09-25T07:31:33.398Z,17.39
2022-09-25T07:34:06.015Z,16.68
2022-09-25T07:36:33.237Z,16.86
2022-09-25T07:38:59.960Z,16.82
2022-09-25T07:41:27.204Z,16.87
2022-09-25T07:44:24.313Z,17.57
2022-09-25T07:46:46.580Z,17.37
2022-09-25T07:49:14.098Z,18.17
2022-09-25T07:51:41.201Z,18.01
2022-09-25T07:54:08.376Z,17.50
2022-09-25T07:56:35.510Z,17.89
2022-09-25T07:59:02.336Z,18.40
2022-09-25T08:01:29.521Z,18.36
2022-09-25T08:03:56.256Z,18.15
2022-09-25T08:06:23.169Z,18.59
2022-09-25T08:08:50.027Z,18.15
2022-09-25T08:11:18.335Z,18.39
2022-09-25T08:13:45.818Z,18.65
2022-09-25T08:16:16.820Z,18.38
2022-09-25T08:18:46.253Z,19.20
2022-09-25T08:21:14.603Z,19.14
2022-09-25T08:23:47.813Z,19.01
2022-09-25T08:26:17.035Z,19.41
2022-09-25T08:28:44.687Z,19.51
2022-09-25T08:31:13.285Z,19.25
2022-09-25T08:33:44.963Z,19.27
2022-09-25T08:36:11.968Z,19.85
2022-09-25T08:38:38.614Z,19.82
2022-09-25T08:41:25.657Z,20.10
2022-09-25T08:44:24.065Z,20.65
2022-09-25T08:47:24.013Z,19.93
2022-09-25T08:50:13.908Z,20.41
2022-09-25T08:52:45.169Z,20.21
2022-09-25T08:55:50.311Z,21.09
2022-09-25T08:58:25.975Z,20.44
2022-09-25T09:00:55.042Z,21.04
2022-09-25T09:03:25.691Z,21.59
2022-09-25T09:06:01.135Z,21.74
2022-09-25T09:08:31.457Z,21.25
2022-09-25T09:11:03.426Z,21.65
2022-09-25T09:13:36.908Z,21.51
2022-09-25T09:16:09.228Z,22.22
2022-09-25T09:18:41.096Z,22.17
2022-09-25T09:21:22.713Z,22.00
2022-09-25T09:23:49.592Z,21.91
2022-09-25T09:26:20.637Z,22.58
2022-09-25T09:28:48.453Z,22.90
2022-09-25T09:31:34.107Z,22.67
2022-09-25T09:34:53.536Z,22.97
2022-09-25T09:37:45.876Z,22.36
2022-09-25T09:40:25.852Z,22.72
2022-09-25T09:43:04.260Z,23.40
2022-09-25T09:45:43.495Z,22.84
2022-09-25T09:48:13.228Z,22.78
2022-09-25T09:50:46.141Z,23.67
2022-09-25T09:53:18.487Z,23.44
2022-09-25T09:55:50.758Z,23.69
2022-09-25T09:58:50.327Z,23.79
2022-09-25T10:04:11.180Z,24.15
2022-09-25T10:06:43.406Z,24.40
2022-09-25T10:09:15.289Z,24.11
2022-09-25T10:11:45.659Z,24.21
2022-09-25T10:14:21.411Z,24.38
2022-09-25T10:16:51.247Z,24.65
2022-09-25T10:19:22.194Z,24.10
2022-09-25T10:22:07.334Z,24.66
2022-09-25T10:24:55.218Z,24.46
2022-09-25T10:27:24.807Z,25.26
2022-09-25T10:30:09.655Z,24.68
2022-09-25T10:32:56.464Z,25.24
2022-09-25T10:35:39.153Z,25.26
2022-09-25T10:38:17.418Z,24.62
2022-09-25T10:40:47.683Z,25.32
2022-09-25T10:43:23.559Z,25.81
2022-09-25T10:46:05.829Z,24.94
2022-09-25T10:48:56.644Z,25.81
2022-09-25T10:51:24.575Z,26.01
2022-09-25T10:54:12.989Z,26.08
2022-09-25T10:56:40.257Z,25.90
2022-09-25T10:59:19.754Z,25.94
2022-09-25T11:01:49.373Z,25.89
2022-09-25T11:04:28.119Z,25.92
2022-09-25T11:07:01.951Z,25.93
2022-09-25T11:09:32.480Z,26.34
2022-09-25T11:12:22.175Z,26.66
2022-09-25T11:15:04.984Z,26.69
2022-09-25T11:17:38.224Z,26.02
2022-09-25T11:20:21.136Z,26.18
2022-09-25T11:23:04.621Z,26.43
2022-09-25T11:25:46.844Z,26.15
2022-09-25T11:28:18.496Z,26.65
2022-09-25T11:30:54.714Z,26.90
2022-09-25T11:33:42.238Z,26.72
2022-09-25T11:36:27.549Z,26.91
2022-09-25T11:39:15.158Z,27.30
2022-09-25T11:41:46.998Z,27.37
2022-09-25T11:44:37.122Z,27.61
2022-09-25T11:47:06.635Z,28.10
2022-09-25T11:49:36.790Z,28.05
2022-09-25T11:52:29.443Z,27.67
2022-09-25T11:55:15.268Z,28.61
2022-09-25T11:58:01.077Z,28.74
2022-09-25T12:00:28.589Z,28.15
2022-09-25T12:03:16.888Z,28.73
2022-09-25T12:06:21.769Z,28.28
2022-09-25T12:09:10.366Z,29.06
2022-09-25T12:12:08.760Z,29.23
2022-09-25T12:14:47.356Z,28.90
2022-09-25T12:17:49.459Z,29.22
2022-09-25T12:20:28.258Z,29.91
2022-09-25T12:23:01.744Z,29.83
2022-09-25T12:25:40.722Z,30.25
2022-09-25T12:28:25.862Z,30.24
2022-09-25T12:31:02.279Z,30.27
2022-09-25T12:34:08.957Z,30.66
2022-09-25T12:36:42.878Z,30.08
2022-09-25T12:39:37.321Z,30.28
2022-09-25T12:42:24.110Z,30.57
2022-09-25T12:45:03.212Z,29.74
2022-09-25T12:47:37.674Z,30.58
2022-09-25T12:50:30.453Z,30.86
2022-09-25T12:53:15.164Z,31.22
2022-09-25T12:55:50.739Z,30.36
2022-09-25T12:58:25.974Z,31.15
2022-09-25T13:00:59.707Z,31.46
2022-09-25T13:04:10.646Z,31.59
2022-09-25T13:07:04.032Z,31.66
2022-09-25T13:09:36.903Z,31.16
2022-09-25T13:12:15.236Z,31.11
2022-09-25T13:14:48.617Z,31.52
2022-09-25T13:17:16.054Z,31.34
2022-09-25T13:19:42.870Z,31.29
2022-09-25T13:22:27.053Z,31.70
2022-09-25T13:25:05.351Z,32.18
2022-09-25T13:27:42.727Z,32.60
2022-09-25T13:30:20.435Z,32.20
2022-09-25T13:32:53.096Z,32.48
2022-09-25T13:35:22.279Z,32.05
2022-09-25T13:37:52.727Z,32.49
2022-09-25T13:40:41.409Z,32.63
2022-09-25T13:43:25.255Z,32.53
2022-09-25T13:46:17.969Z,32.37
2022-09-25T13:48:44.882Z,33.52
2022-09-25T13:51:20.233Z,33.30
2022-09-25T13:54:23.974Z,33.73
2022-09-25T13:56:53.599Z,32.08
2022-09-25T13:59:23.215Z,31.64
2022-09-25T14:01:54.075Z,31.67
2022-09-25T14:04:28.226Z,32.63
2022-09-25T14:07:26.676Z,33.22
2022-09-25T14:09:59.068Z,31.53
2022-09-25T14:12:48.095Z,30.43
2022-09-25T14:15:37.594Z,30.93
2022-09-25T14:18:09.382Z,30.88
2022-09-25T14:20:40.855Z,31.02
2022-09-25T14:23:24.203Z,29.97
2022-09-25T14:26:07.357Z,30.20
2022-09-25T14:28:46.234Z,30.64
2022-09-25T14:31:37.669Z,30.68
2022-09-25T14:34:30.034Z,31.53
2022-09-25T14:37:01.653Z,31.54
2022-09-25T14:39:45.121Z,31.44
2022-09-25T14:42:39.468Z,31.57
2022-09-25T14:45:12.631Z,32.08
2022-09-25T14:47:43.622Z,32.23
2022-09-25T14:50:28.890Z,31.80
2022-09-25T14:53:00.013Z,31.80
2022-09-25T14:55:34.977Z,31.35
2022-09-25T14:58:02.799Z,30.30
2022-09-25T15:00:30.084Z,30.81
2022-09-25T15:02:58.433Z,30.61
2022-09-25T15:05:27.869Z,29.89
2022-09-25T15:07:59.403Z,29.94
2022-09-25T15:10:41.332Z,29.39
2022-09-25T15:13:15.906Z,28.60
2022-09-25T15:16:06.370Z,28.19
2022-09-25T15:18:37.926Z,28.62
2022-09-25T15:21:08.786Z,28.72
2022-09-25T15:23:38.529Z,28.84
2022-09-25T15:26:05.481Z,29.03
2022-09-25T15:28:40.101Z,28.90
2022-09-25T15:31:07.427Z,28.53
2022-09-25T15:33:37.343Z,27.48
2022-09-25T15:36:24.549Z,27.84
2022-09-25T15:39:00.841Z,27.64
2022-09-25T15:41:29.339Z,27.95
2022-09-25T15:44:26.132Z,28.26
2022-09-25T15:47:02.214Z,28.27
2022-09-25T15:49:41.283Z,28.05
2022-09-25T15:52:33.704Z,28.04
2022-09-25T15:55:14.649Z,27.98
2022-09-25T15:57:42.276Z,28.19
2022-09-25T16:00:36.783Z,27.85
2022-09-25T16:03:48.538Z,27.43
2022-09-25T16:06:16.939Z,27.21
2022-09-25T16:08:44.162Z,27.49
2022-09-25T16:11:16.822Z,27.55
2022-09-25T16:13:47.904Z,27.15
2022-09-25T16:16:24.179Z,27.10
2022-09-25T16:18:54.358Z,26.62
2022-09-25T16:21:28.942Z,26.49
2022-09-25T16:24:02.859Z,26.45
2022-09-25T16:26:39.318Z,26.51
2022-09-25T16:29:11.974Z,26.80
2022-09-25T16:31:41.332Z,26.77
2022-09-25T16:34:19.482Z,26.37
2022-09-25T16:36:48.582Z,26.21
2022-09-25T16:39:25.636Z,25.96
2022-09-25T16:41:53.241Z,25.77
2022-09-25T16:44:35.791Z,25.69
2022-09-25T16:47:21.609Z,25.82
2022-09-25T16:49:49.445Z,25.78
2022-09-25T16:52:23.373Z,25.44
2022-09-25T16:54:53.415Z,25.69
2022-09-25T16:57:25.401Z,26.00
2022-09-25T16:59:52.653Z,25.62
2022-09-25T17:02:37.262Z,25.62
2022-09-25T17:05:08.052Z,25.71
2022-09-25T17:07:35.028Z,25.84
2022-09-25T17:10:02.341Z,25.84
2022-09-25T17:12:31.517Z,25.68
2022-09-25T17:14:59.340Z,25.00
2022-09-25T17:17:26.389Z,25.62
2022-09-25T17:19:53.191Z,25.97
2022-09-25T17:22:20.169Z,26.11
2022-09-25T17:24:46.893Z,26.23
2022-09-25T17:27:16.604Z,26.11
2022-09-25T17:29:44.055Z,25.61
2022-09-25T17:32:13.736Z,25.71
2022-09-25T17:34:41.216Z,25.76
2022-09-25T17:37:08.265Z,25.81
2022-09-25T17:39:35.041Z,25.90
2022-09-25T17:42:02.825Z,24.29
2022-09-25T17:44:29.879Z,24.64
2022-09-25T17:46:57.643Z,24.93
2022-09-25T17:49:25.550Z,24.93
2022-09-25T17:51:52.878Z,25.15
2022-09-25T17:54:20.045Z,24.57
2022-09-25T17:56:47.056Z,24.71
2022-09-25T17:59:14.769Z,24.47
2022-09-25T18:01:41.688Z,24.34
2022-09-25T18:04:23.677Z,23.81
2022-09-25T18:06:51.376Z,23.61
2022-09-25T18:09:18.365Z,23.92
2022-09-25T18:11:45.405Z,23.94
2022-09-25T18:14:14.877Z,23.99
2022-09-25T18:16:43.797Z,24.00
2022-09-25T18:19:34.571Z,24.07
2022-09-25T18:22:17.588Z,23.93
2022-09-25T18:24:46.066Z,23.91
2022-09-25T18:27:13.670Z,23.67
2022-09-25T18:29:40.730Z,23.79
2022-09-25T18:32:08.309Z,23.83
2022-09-25T18:34:35.215Z,23.78
2022-09-25T18:37:02.073Z,23.63
2022-09-25T18:39:29.606Z,23.27
2022-09-25T18:41:56.466Z,23.10
2022-09-25T18:44:23.627Z,23.20
2022-09-25T18:46:51.778Z,23.16
2022-09-25T18:49:19.204Z,22.94
2022-09-25T18:51:46.118Z,23.19
2022-09-25T18:54:14.427Z,23.36
2022-09-25T18:56:41.653Z,23.34
2022-09-25T18:59:08.569Z,23.23
2022-09-25T19:01:36.271Z,23.10
2022-09-25T19:04:04.074Z,23.03
2022-09-25T19:06:30.855Z,22.94
2022-09-25T19:08:58.174Z,22.22
2022-09-25T19:11:26.959Z,21.68
2022-09-25T19:13:54.205Z,21.79
2022-09-25T19:16:21.806Z,22.24
2022-09-25T19:18:50.363Z,21.96
2022-09-25T19:21:22.286Z,21.56
2022-09-25T19:23:49.901Z,21.17
2022-09-25T19:26:20.972Z,21.47
2022-09-25T19:28:48.343Z,21.54
2022-09-25T19:31:18.008Z,21.81
2022-09-25T19:33:45.185Z,21.74
2022-09-25T19:36:19.448Z,22.13
2022-09-25T19:38:47.024Z,22.02
2022-09-25T19:41:16.520Z,20.98
2022-09-25T19:43:43.936Z,21.07
2022-09-25T19:46:17.359Z,21.49
2022-09-25T19:48:44.920Z,21.77
2022-09-25T19:51:11.789Z,21.71
2022-09-25T19:53:40.613Z,21.86
2022-09-25T19:56:08.794Z,21.69
2022-09-25T19:58:38.351Z,21.87
2022-09-25T20:01:15.663Z,21.77
2022-09-25T20:03:43.099Z,21.44
2022-09-25T20:06:11.133Z,21.43
2022-09-25T20:08:38.888Z,21.50
2022-09-25T20:11:32.691Z,21.58
2022-09-25T20:14:01.975Z,21.25
2022-09-25T20:16:29.959Z,21.08
2022-09-25T20:19:02.781Z,21.17
2022-09-25T20:21:32.830Z,20.55
2022-09-25T20:24:01.975Z,20.57
2022-09-25T20:26:30.194Z,20.67
2022-09-25T20:29:02.447Z,20.47
2022-09-25T20:31:32.812Z,19.45
2022-09-25T20:33:59.629Z,19.70
2022-09-25T20:36:26.689Z,19.88
2022-09-25T20:38:56.313Z,20.13
2022-09-25T20:41:24.850Z,20.33
2022-09-25T20:43:55.096Z,20.57
2022-09-25T20:46:23.938Z,20.42
2022-09-25T20:48:52.794Z,20.67
2022-09-25T20:51:23.984Z,20.76
2022-09-25T20:53:52.313Z,20.56
2022-09-25T20:56:19.715Z,20.54
2022-09-25T20:58:52.189Z,20.55
2022-09-25T21:01:22.862Z,20.67
2022-09-25T21:03:50.960Z,20.45
2022-09-25T21:06:20.732Z,20.67
2022-09-25T21:08:51.649Z,20.53
2022-09-25T21:11:18.646Z,20.62
2022-09-25T21:13:50.380Z,20.34
2022-09-25T21:16:18.260Z,20.56
2022-09-25T21:18:45.124Z,20.68
2022-09-25T21:21:14.264Z,20.51
2022-09-25T21:23:43.663Z,20.48
2022-09-25T21:26:13.829Z,20.36
2022-09-25T21:28:46.202Z,19.87
2022-09-25T21:31:16.344Z,20.18
2022-09-25T21:33:43.770Z,20.12
2022-09-25T21:36:13.293Z,19.11
2022-09-25T21:38:40.000Z,19.43
2022-09-25T21:41:08.899Z,19.84
2022-09-25T21:43:36.091Z,19.97
2022-09-25T21:46:09.232Z,19.65
2022-09-25T21:48:37.318Z,19.58
2022-09-25T21:51:05.817Z,19.51
2022-09-25T21:53:33.960Z,19.06
2022-09-25T21:56:02.134Z,19.14
2022-09-25T21:58:29.806Z,19.25
2022-09-25T22:01:10.292Z,19.07
2022-09-25T22:03:41.373Z,18.65
2022-09-25T22:06:14.021Z,18.31
2022-09-25T22:08:44.022Z,18.99
2022-09-25T22:11:12.007Z,18.88
2022-09-25T22:13:41.793Z,19.17
2022-09-25T22:16:18.154Z,19.13
2022-09-25T22:18:56.905Z,19.14
2022-09-25T22:21:26.168Z,18.88
2022-09-25T22:23:53.082Z,19.07
2022-09-25T22:26:20.480Z,19.00
2022-09-25T22:28:48.001Z,18.72
2022-09-25T22:31:23.450Z,18.83
2022-09-25T22:33:54.361Z,18.88
2022-09-25T22:36:21.753Z,18.99
2022-09-25T22:38:48.466Z,18.82
2022-09-25T22:41:16.276Z,18.54
2022-09-25T22:43:43.257Z,18.71
2022-09-25T22:46:11.765Z,18.70
2022-09-25T22:48:40.769Z,17.86
2022-09-25T22:51:13.036Z,18.08
2022-09-25T22:53:40.632Z,18.48
2022-09-25T22:56:16.399Z,18.47
2022-09-25T22:58:48.034Z,18.39
2022-09-25T23:01:18.688Z,18.42
2022-09-25T23:03:45.555Z,17.93
2022-09-25T23:06:12.346Z,18.36
2022-09-25T23:08:39.146Z,17.91
2022-09-25T23:11:08.285Z,18.03
2022-09-25T23:13:36.001Z,17.94
2022-09-25T23:16:07.534Z,18.23
2022-09-25T23:18:37.594Z,18.08
2022-09-25T23:21:05.167Z,17.80
2022-09-25T23:23:32.489Z,17.69
2022-09-25T23:26:06.326Z,17.91
2022-09-25T23:28:35.431Z,18.03
2022-09-25T23:31:10.782Z,18.31
2022-09-25T23:33:39.644Z,18.39
2022-09-25T23:36:09.304Z,18.57
2022-09-25T23:38:36.978Z,18.36
2022-09-25T23:41:13.953Z,18.44
2022-09-25T23:43:40.873Z,18.31
2022-09-25T23:46:08.018Z,18.12
2022-09-25T23:48:35.112Z,18.03
2022-09-25T23:51:01.975Z,18.08
2022-09-25T23:53:28.728Z,18.34
2022-09-25T23:55:55.763Z,18.00
2022-09-25T23:58:22.562Z,18.16
